Time;durP1;ratioP1;P1;durP2;ratioP2;P2;SDS_P1;SDS_P2;PMS_P1;PMS_P2;Temp;Humidity;BMP_temperature;BMP_pressure;BME280_temperature;BME280_humidity;BME280_pressure;Samples;Min_cycle;Max_cycle;Signal;HPM_P1;HPM_P2
2024/01/12 00:00:41;;;;;;;82.33;34.07;;;1.40;99.90;;;;;;6208755;23;20103;-66
2024/01/12 00:03:06;;;;;;;88.27;34.80;;;1.40;99.90;;;;;;6209583;23;20259;-67
2024/01/12 00:05:32;;;;;;;82.60;34.03;;;1.40;99.90;;;;;;6209449;23;20440;-67
2024/01/12 00:07:58;;;;;;;88.40;34.83;;;1.30;99.90;;;;;;6209539;23;20762;-68
2024/01/12 00:10:23;;;;;;;91.67;36.37;;;1.30;99.90;;;;;;6209300;23;20001;-66
2024/01/12 00:12:49;;;;;;;95.35;37.22;;;1.40;99.90;;;;;;6207202;23;20036;-67
2024/01/12 00:15:15;;;;;;;83.13;37.53;;;1.30;99.90;;;;;;6209384;23;20005;-67
2024/01/12 00:17:40;;;;;;;83.57;36.25;;;1.30;99.90;;;;;;6209728;23;20635;-66
2024/01/12 00:20:07;;;;;;;83.63;38.15;;;1.30;99.90;;;;;;6210193;23;20003;-66
2024/01/12 00:22:32;;;;;;;87.53;36.90;;;1.30;99.90;;;;;;6209768;23;20025;-68
2024/01/12 00:24:58;;;;;;;81.27;34.23;;;1.30;99.90;;;;;;6208040;23;20004;-71
2024/01/12 00:27:23;;;;;;;77.05;33.25;;;1.30;99.90;;;;;;6209554;23;20573;-67
2024/01/12 00:29:49;;;;;;;91.17;36.47;;;1.30;99.90;;;;;;6209071;23;20008;-67
2024/01/12 00:32:14;;;;;;;100.47;37.07;;;1.30;99.90;;;;;;6209252;23;20148;-67
2024/01/12 00:34:40;;;;;;;91.20;36.10;;;1.30;99.90;;;;;;6209689;23;20066;-67
2024/01/12 00:37:06;;;;;;;95.20;36.80;;;1.30;99.90;;;;;;6209289;23;20004;-67
2024/01/12 00:39:32;;;;;;;99.60;36.92;;;1.30;99.90;;;;;;6208879;23;20984;-66
2024/01/12 00:41:58;;;;;;;91.55;38.30;;;1.30;99.90;;;;;;6209177;23;20016;-67
2024/01/12 00:44:24;;;;;;;83.97;35.60;;;1.30;99.90;;;;;;6207219;23;20705;-66
2024/01/12 00:46:51;;;;;;;88.03;36.50;;;1.30;99.90;;;;;;6208964;23;20236;-66
2024/01/12 00:49:19;;;;;;;;;;;1.30;99.90;;;;;;6209568;23;20031;-69
2024/01/12 00:51:45;;;;;;;87.43;35.97;;;1.30;99.90;;;;;;6208731;23;20651;-70
2024/01/12 00:54:11;;;;;;;87.53;37.60;;;1.30;99.90;;;;;;6208770;23;20036;-70
2024/01/12 00:56:37;;;;;;;89.67;39.07;;;1.20;99.90;;;;;;6208807;23;20034;-69
2024/01/12 00:59:03;;;;;;;81.80;36.45;;;1.30;99.90;;;;;;6208605;23;20297;-69
2024/01/12 01:01:29;;;;;;;91.68;37.35;;;1.30;99.90;;;;;;6257587;22;20054;-67
2024/01/12 01:03:55;;;;;;;92.47;38.35;;;1.20;99.90;;;;;;6208710;23;20427;-68
2024/01/12 01:06:20;;;;;;;95.97;38.60;;;1.20;99.90;;;;;;6208477;23;20004;-69
2024/01/12 01:08:48;;;;;;;85.10;38.70;;;1.20;99.90;;;;;;6208443;23;20076;-68
2024/01/12 01:11:14;;;;;;;82.88;35.45;;;1.20;99.90;;;;;;6206854;23;20423;-67
2024/01/12 01:13:40;;;;;;;85.50;36.95;;;1.20;99.90;;;;;;6208943;23;20012;-69
2024/01/12 01:16:05;;;;;;;89.68;38.20;;;1.20;99.90;;;;;;6208722;23;20421;-70
2024/01/12 01:18:32;;;;;;;86.85;37.20;;;1.20;99.90;;;;;;6206805;23;20008;-70
2024/01/12 01:20:57;;;;;;;86.05;37.95;;;1.20;99.90;;;;;;6208229;23;20013;-67
2024/01/12 01:23:23;;;;;;;91.80;36.92;;;1.20;99.90;;;;;;6208239;23;20008;-70
2024/01/12 01:25:49;;;;;;;92.97;39.75;;;1.20;99.90;;;;;;6208383;23;20434;-67
2024/01/12 01:28:15;;;;;;;86.10;37.20;;;1.20;99.90;;;;;;6208335;23;20004;-68
2024/01/12 01:30:40;;;;;;;91.87;37.07;;;1.20;99.90;;;;;;6208087;23;20104;-68
2024/01/12 01:33:06;;;;;;;92.33;39.07;;;1.20;99.90;;;;;;6208194;23;20441;-66
2024/01/12 01:35:32;;;;;;;91.23;41.30;;;1.20;99.90;;;;;;6208638;23;20259;-67
2024/01/12 01:37:57;;;;;;;82.30;38.42;;;1.20;99.90;;;;;;6208053;23;20034;-67
2024/01/12 01:40:23;;;;;;;88.93;38.53;;;1.20;99.90;;;;;;6208440;23;20076;-67
2024/01/12 01:42:49;;;;;;;92.17;37.73;;;1.30;99.90;;;;;;6208028;23;20027;-66
2024/01/12 01:45:15;;;;;;;82.63;36.78;;;1.30;99.90;;;;;;6208787;23;20545;-67
2024/01/12 01:47:42;;;;;;;83.65;36.55;;;1.30;99.90;;;;;;6208493;23;20004;-68
2024/01/12 01:50:10;;;;;;;87.78;38.58;;;1.20;99.90;;;;;;6209066;23;20008;-67
2024/01/12 01:52:36;;;;;;;89.07;39.78;;;1.30;99.90;;;;;;6232210;23;20361;-68
2024/01/12 01:55:02;;;;;;;92.88;39.63;;;1.30;99.90;;;;;;6207163;23;20005;-68
2024/01/12 01:57:28;;;;;;;89.25;37.53;;;1.30;99.90;;;;;;6206931;23;20019;-69
2024/01/12 01:59:54;;;;;;;87.70;40.13;;;1.20;99.90;;;;;;6208203;23;20001;-68
2024/01/12 02:02:21;;;;;;;90.60;39.25;;;1.20;99.90;;;;;;6208330;23;20467;-67
2024/01/12 02:04:47;;;;;;;89.60;38.53;;;1.30;99.90;;;;;;6208855;23;20007;-66
2024/01/12 02:07:12;;;;;;;93.28;39.83;;;1.30;99.90;;;;;;6207555;23;20009;-70
2024/01/12 02:09:38;;;;;;;89.63;39.37;;;1.30;99.90;;;;;;6208469;23;20007;-66
2024/01/12 02:12:04;;;;;;;104.10;41.17;;;1.30;99.90;;;;;;6207891;23;20312;-67
2024/01/12 02:14:30;;;;;;;102.40;42.15;;;1.30;99.90;;;;;;6208782;23;20008;-68
2024/01/12 02:16:56;;;;;;;;;;;1.20;99.90;;;;;;6208457;23;20000;-68
2024/01/12 02:19:22;;;;;;;94.75;40.60;;;1.20;99.90;;;;;;6208195;23;20296;-69
2024/01/12 02:21:47;;;;;;;94.20;42.73;;;1.20;99.90;;;;;;6208136;23;20013;-69
2024/01/12 02:24:13;;;;;;;107.37;42.57;;;1.30;99.90;;;;;;6207791;23;20441;-67
2024/01/12 02:26:39;;;;;;;97.57;41.03;;;1.20;99.90;;;;;;6208800;23;20008;-67
2024/01/12 02:29:04;;;;;;;107.15;44.30;;;1.20;99.90;;;;;;6207881;23;20566;-68
2024/01/12 02:31:30;;;;;;;99.10;44.13;;;1.20;99.90;;;;;;6207911;23;20394;-67
2024/01/12 02:33:56;;;;;;;98.70;41.87;;;1.20;99.90;;;;;;6207928;23;20088;-68
2024/01/12 02:36:26;;;;;;;97.67;44.37;;;1.20;99.90;;;;;;6208200;23;20012;-66
2024/01/12 02:38:52;;;;;;;100.93;43.08;;;1.20;99.90;;;;;;6207534;23;20321;-67
2024/01/12 02:41:18;;;;;;;108.45;45.88;;;1.20;99.90;;;;;;6207905;23;20009;-67
2024/01/12 02:43:44;;;;;;;112.20;44.85;;;1.20;99.90;;;;;;6208075;23;20059;-67
2024/01/12 02:46:09;;;;;;;104.63;45.55;;;1.20;99.90;;;;;;6207930;23;20005;-66
2024/01/12 02:48:35;;;;;;;104.15;44.20;;;1.20;99.90;;;;;;6208027;23;20337;-66
2024/01/12 02:51:01;;;;;;;105.67;45.53;;;1.20;99.90;;;;;;6207497;23;20961;-66
2024/01/12 02:53:26;;;;;;;109.57;46.23;;;1.20;99.90;;;;;;6205767;23;20821;-69
2024/01/12 02:55:52;;;;;;;102.03;42.73;;;1.20;99.90;;;;;;6207910;23;20012;-67
2024/01/12 02:58:17;;;;;;;100.20;44.27;;;1.20;99.90;;;;;;6207749;23;20322;-67
2024/01/12 03:00:43;;;;;;;110.82;45.42;;;1.20;99.90;;;;;;6207629;23;20001;-67
2024/01/12 03:03:09;;;;;;;101.87;44.30;;;1.20;99.90;;;;;;6207312;23;20012;-67
2024/01/12 03:05:35;;;;;;;113.03;47.10;;;1.20;99.90;;;;;;6206874;23;20005;-70
2024/01/12 03:08:01;;;;;;;107.30;45.57;;;1.20;99.90;;;;;;6207314;23;20412;-68
2024/01/12 03:10:26;;;;;;;113.27;47.73;;;1.20;99.90;;;;;;6207560;23;20287;-67
2024/01/12 03:12:52;;;;;;;112.73;48.97;;;1.20;99.90;;;;;;6207766;23;20560;-70
2024/01/12 03:15:18;;;;;;;109.67;45.53;;;1.20;99.90;;;;;;6207918;23;20004;-67
2024/01/12 03:17:43;;;;;;;121.30;49.05;;;1.20;99.90;;;;;;6207960;23;20232;-68
2024/01/12 03:20:09;;;;;;;103.30;47.27;;;1.20;99.90;;;;;;6208039;23;20012;-67
2024/01/12 03:22:36;;;;;;;108.05;45.60;;;1.10;99.90;;;;;;6207224;23;20270;-70
2024/01/12 03:25:01;;;;;;;114.75;48.28;;;1.10;99.90;;;;;;6207596;23;20005;-67
2024/01/12 03:27:28;;;;;;;117.90;50.30;;;1.10;99.90;;;;;;6207844;23;20009;-67
2024/01/12 03:29:53;;;;;;;116.75;50.30;;;1.10;99.90;;;;;;6207548;23;20036;-69
2024/01/12 03:32:21;;;;;;;113.15;47.28;;;1.20;99.90;;;;;;6207992;23;20401;-67
2024/01/12 03:34:46;;;;;;;108.97;49.47;;;1.20;99.90;;;;;;6207993;23;20083;-67
2024/01/12 03:37:12;;;;;;;113.50;49.78;;;1.10;99.90;;;;;;6208526;23;20054;-67
2024/01/12 03:39:38;;;;;;;107.35;47.17;;;1.10;99.90;;;;;;6208114;23;20441;-71
2024/01/12 03:42:04;;;;;;;119.45;49.97;;;1.10;99.90;;;;;;6207771;23;20349;-66
2024/01/12 03:44:29;;;;;;;114.35;48.60;;;1.10;99.90;;;;;;6231325;23;20100;-66
2024/01/12 03:46:55;;;;;;;118.33;50.47;;;1.10;99.90;;;;;;6207515;23;20001;-67
2024/01/12 03:49:22;;;;;;;112.18;47.13;;;1.10;99.90;;;;;;6207420;23;20311;-67
2024/01/12 03:51:53;;;;;;;120.85;50.97;;;1.10;99.90;;;;;;6208010;23;20080;-66
2024/01/12 03:54:28;;;;;;;112.05;49.50;;;1.10;99.90;;;;;;6207760;23;20011;-67
2024/01/12 03:56:54;;;;;;;111.32;50.28;;;1.10;99.90;;;;;;6207448;23;20005;-66
2024/01/12 03:59:19;;;;;;;126.55;50.90;;;1.10;99.90;;;;;;6209160;23;20008;-68
2024/01/12 04:01:46;;;;;;;114.93;51.00;;;1.10;99.90;;;;;;6209217;23;20563;-66
2024/01/12 04:04:12;;;;;;;125.35;50.33;;;1.10;99.90;;;;;;6209868;23;20357;-67
2024/01/12 04:06:41;;;;;;;123.45;52.90;;;1.10;99.90;;;;;;6209886;23;20004;-69
2024/01/12 04:09:09;;;;;;;121.22;50.35;;;1.10;99.90;;;;;;6209477;23;20009;-70
2024/01/12 04:11:36;;;;;;;116.38;51.30;;;1.10;99.90;;;;;;6208882;23;20046;-67
2024/01/12 04:14:01;;;;;;;114.40;48.85;;;1.10;99.90;;;;;;6209522;23;20004;-67
2024/01/12 04:16:27;;;;;;;111.77;49.27;;;1.10;99.90;;;;;;6209424;23;20011;-67
2024/01/12 04:18:52;;;;;;;113.63;51.13;;;1.10;99.90;;;;;;6209545;23;20577;-67
2024/01/12 04:21:18;;;;;;;112.53;50.47;;;1.10;99.90;;;;;;6209361;23;20068;-67
2024/01/12 04:23:43;;;;;;;120.40;49.77;;;1.10;99.90;;;;;;6209163;23;20005;-66
2024/01/12 04:26:09;;;;;;;118.53;51.43;;;1.10;99.90;;;;;;6209711;23;20011;-66
2024/01/12 04:28:34;;;;;;;114.17;50.43;;;1.10;99.90;;;;;;6209510;23;20031;-68
2024/01/12 04:31:03;;;;;;;122.30;52.33;;;1.10;99.90;;;;;;6209333;23;20017;-67
2024/01/12 04:33:30;;;;;;;125.45;50.80;;;1.10;99.90;;;;;;6209169;23;20330;-68
2024/01/12 04:35:56;;;;;;;116.55;51.05;;;1.10;99.90;;;;;;6209300;23;20027;-66
2024/01/12 04:38:22;;;;;;;123.38;51.30;;;1.10;99.90;;;;;;6209496;23;20906;-66
2024/01/12 04:40:48;;;;;;;120.00;52.38;;;1.10;99.90;;;;;;6208782;23;20008;-69
2024/01/12 04:43:14;;;;;;;121.47;51.50;;;1.10;99.90;;;;;;6208773;23;20016;-70
2024/01/12 04:45:39;;;;;;;118.72;48.80;;;1.10;99.90;;;;;;6209227;23;20429;-67
2024/01/12 04:48:05;;;;;;;112.45;48.63;;;1.10;99.90;;;;;;6208927;23;20008;-66
2024/01/12 04:50:31;;;;;;;118.85;50.58;;;1.10;99.90;;;;;;6209106;23;20000;-67
2024/01/12 04:52:57;;;;;;;123.05;52.15;;;1.10;99.90;;;;;;6208772;23;20028;-66
2024/01/12 04:55:23;;;;;;;117.83;51.27;;;1.20;99.90;;;;;;6207380;23;20443;-65
2024/01/12 04:57:49;;;;;;;120.60;50.60;;;1.10;99.90;;;;;;6208526;23;20004;-67
2024/01/12 05:00:16;;;;;;;125.10;50.85;;;1.10;99.90;;;;;;6207663;23;20019;-67
2024/01/12 05:02:41;;;;;;;119.40;50.63;;;1.10;99.90;;;;;;6208335;23;20017;-66
2024/01/12 05:05:10;;;;;;;126.68;55.28;;;1.10;99.90;;;;;;6208195;23;20004;-70
2024/01/12 05:07:35;;;;;;;131.00;51.60;;;1.10;99.90;;;;;;6208560;23;20008;-67
2024/01/12 05:10:03;;;;;;;120.67;51.57;;;1.10;99.90;;;;;;6207231;23;20077;-66
2024/01/12 05:12:28;;;;;;;127.20;50.60;;;1.10;99.90;;;;;;6208850;23;19997;-67
2024/01/12 05:14:54;;;;;;;121.75;52.63;;;1.10;99.90;;;;;;6208448;23;20040;-68
2024/01/12 05:17:20;;;;;;;115.83;48.77;;;1.10;99.90;;;;;;6207161;23;20005;-66
2024/01/12 05:19:45;;;;;;;123.57;50.57;;;1.10;99.90;;;;;;6208754;23;20321;-65
2024/01/12 05:22:11;;;;;;;116.97;49.33;;;1.10;99.90;;;;;;6209249;23;20055;-66
2024/01/12 05:24:37;;;;;;;132.23;52.10;;;1.10;99.90;;;;;;6209042;23;20619;-66
2024/01/12 05:27:03;;;;;;;132.93;53.53;;;1.10;99.90;;;;;;6208636;23;20004;-66
2024/01/12 05:29:28;;;;;;;124.13;51.42;;;1.10;99.90;;;;;;6208255;23;20008;-66
2024/01/12 05:31:54;;;;;;;115.70;50.47;;;1.10;99.90;;;;;;6208573;23;20015;-65
2024/01/12 05:34:20;;;;;;;117.53;50.88;;;1.10;99.90;;;;;;6208496;23;20270;-66
2024/01/12 05:36:45;;;;;;;120.47;50.97;;;1.10;99.90;;;;;;6209092;23;20041;-66
2024/01/12 05:39:11;;;;;;;121.78;49.15;;;1.10;99.90;;;;;;6207740;23;20244;-68
2024/01/12 05:41:36;;;;;;;137.63;53.50;;;1.10;99.90;;;;;;6208061;23;20012;-68
2024/01/12 05:44:02;;;;;;;193.23;70.87;;;1.10;99.90;;;;;;6206954;23;20577;-66
2024/01/12 05:46:28;;;;;;;161.82;61.95;;;1.10;99.90;;;;;;6208592;23;20339;-66
2024/01/12 05:48:54;;;;;;;125.53;49.38;;;1.10;99.90;;;;;;6206592;23;20479;-70
2024/01/12 05:51:20;;;;;;;132.80;53.35;;;1.10;99.90;;;;;;6208144;23;20040;-67
2024/01/12 05:53:46;;;;;;;;;;;1.10;99.90;;;;;;6209059;23;20007;-67
2024/01/12 05:56:12;;;;;;;143.27;52.80;;;1.10;99.90;;;;;;6208469;23;19899;-68
2024/01/12 05:58:37;;;;;;;130.85;55.60;;;1.10;99.90;;;;;;6208095;23;20039;-66
2024/01/12 06:01:03;;;;;;;128.13;53.93;;;1.10;99.90;;;;;;6208124;23;20004;-69
2024/01/12 06:03:28;;;;;;;134.88;52.78;;;1.10;99.90;;;;;;6208146;23;20256;-66
2024/01/12 06:05:57;;;;;;;141.37;52.40;;;1.10;99.90;;;;;;6208164;23;20071;-69
2024/01/12 06:08:23;;;;;;;135.70;51.60;;;1.10;99.90;;;;;;6208321;23;20067;-66
2024/01/12 06:10:50;;;;;;;143.20;54.08;;;1.10;99.90;;;;;;6208316;23;20005;-67
2024/01/12 06:13:16;;;;;;;139.50;56.60;;;1.10;99.90;;;;;;6208318;23;20100;-67
2024/01/12 06:15:42;;;;;;;120.03;49.63;;;1.10;99.90;;;;;;6208443;23;20476;-67
2024/01/12 06:18:07;;;;;;;132.55;51.75;;;1.10;99.90;;;;;;6208034;23;20099;-66
2024/01/12 06:20:33;;;;;;;144.53;52.23;;;1.10;99.90;;;;;;6208211;23;20011;-67
2024/01/12 06:22:59;;;;;;;139.88;55.38;;;1.10;99.90;;;;;;6207602;23;20588;-66
2024/01/12 06:25:24;;;;;;;129.23;52.33;;;1.10;99.90;;;;;;6207749;23;20011;-68
2024/01/12 06:27:50;;;;;;;141.30;52.90;;;1.10;99.90;;;;;;6207874;23;20445;-66
2024/01/12 06:30:16;;;;;;;144.13;51.92;;;1.10;99.90;;;;;;6207691;23;20264;-67
2024/01/12 06:32:42;;;;;;;128.02;51.17;;;1.00;99.90;;;;;;6208579;23;20190;-66
2024/01/12 06:35:10;;;;;;;125.88;50.67;;;1.00;99.90;;;;;;6207726;23;20009;-66
2024/01/12 06:37:36;;;;;;;122.75;49.47;;;1.10;99.90;;;;;;6207591;23;20000;-66
2024/01/12 06:40:01;;;;;;;134.95;52.78;;;1.10;99.90;;;;;;6204912;23;20015;-66
2024/01/12 06:42:30;;;;;;;122.32;50.65;;;1.10;99.90;;;;;;6205289;23;20012;-66
2024/01/12 06:44:57;;;;;;;118.28;48.58;;;1.10;99.90;;;;;;6205339;23;20005;-67
2024/01/12 06:47:22;;;;;;;139.52;50.58;;;1.00;99.90;;;;;;6205589;23;20019;-69
2024/01/12 06:49:48;;;;;;;119.77;49.27;;;1.00;99.90;;;;;;6206607;23;20013;-66
2024/01/12 06:52:14;;;;;;;121.07;49.88;;;1.00;99.90;;;;;;6207230;23;20035;-70
2024/01/12 06:54:43;;;;;;;119.10;50.00;;;1.00;99.90;;;;;;6206743;23;20000;-72
2024/01/12 06:57:10;;;;;;;120.30;48.70;;;1.00;99.90;;;;;;6206333;23;20005;-65
2024/01/12 06:59:35;;;;;;;129.15;51.60;;;1.00;99.90;;;;;;6206659;23;20001;-65
2024/01/12 07:02:01;;;;;;;134.33;51.13;;;1.00;99.90;;;;;;6206305;23;20341;-70
2024/01/12 07:04:26;;;;;;;124.93;50.83;;;1.00;99.90;;;;;;6207041;23;20243;-68
2024/01/12 07:06:52;;;;;;;138.88;52.42;;;1.00;99.90;;;;;;6205909;23;20005;-67
2024/01/12 07:09:19;;;;;;;129.20;50.45;;;1.00;99.90;;;;;;6206778;23;20005;-66
2024/01/12 07:11:45;;;;;;;;;;;1.00;99.90;;;;;;6207644;23;20043;-68
2024/01/12 07:14:14;;;;;;;118.28;48.47;;;1.00;99.90;;;;;;6206984;23;19979;-70
2024/01/12 07:16:40;;;;;;;122.07;50.88;;;1.00;99.90;;;;;;6207082;23;20086;-65
2024/01/12 07:19:06;;;;;;;127.13;52.45;;;0.90;99.90;;;;;;6206505;23;20009;-67
2024/01/12 07:21:32;;;;;;;134.75;53.40;;;1.00;99.90;;;;;;6207142;23;20051;-67
2024/01/12 07:23:58;;;;;;;128.02;50.53;;;1.00;99.90;;;;;;6206911;23;20000;-67
2024/01/12 07:26:24;;;;;;;137.98;53.03;;;1.00;99.90;;;;;;6207861;23;20122;-67
2024/01/12 07:28:50;;;;;;;134.40;52.40;;;1.00;99.90;;;;;;6206243;23;20758;-67
2024/01/12 07:31:15;;;;;;;121.30;50.77;;;1.00;99.90;;;;;;6207350;23;20789;-68
2024/01/12 07:33:41;;;;;;;120.13;50.47;;;1.00;99.90;;;;;;6208028;23;20440;-69
2024/01/12 07:36:07;;;;;;;123.40;51.23;;;1.00;99.90;;;;;;6206775;23;20231;-66
2024/01/12 07:38:33;;;;;;;120.72;48.42;;;1.00;99.90;;;;;;6208503;23;20004;-70
2024/01/12 07:40:59;;;;;;;137.40;53.20;;;1.00;99.90;;;;;;6207070;23;20166;-70
2024/01/12 07:43:27;;;;;;;139.50;52.70;;;1.00;99.90;;;;;;6207803;23;20264;-69
2024/01/12 07:45:55;;;;;;;134.30;50.78;;;1.00;99.90;;;;;;6207461;23;20337;-68
2024/01/12 07:48:20;;;;;;;137.68;53.85;;;1.00;99.90;;;;;;6207680;23;20318;-68
2024/01/12 07:50:46;;;;;;;130.97;52.50;;;1.00;99.90;;;;;;6208356;23;20100;-69
2024/01/12 07:53:12;;;;;;;131.23;50.27;;;1.00;99.90;;;;;;6208208;23;20016;-70
2024/01/12 07:55:38;;;;;;;127.40;50.43;;;1.00;99.90;;;;;;6207362;23;20256;-67
2024/01/12 07:58:04;;;;;;;130.65;51.53;;;1.00;99.90;;;;;;6207225;23;20395;-69
2024/01/12 08:00:30;;;;;;;126.63;47.90;;;1.00;99.90;;;;;;6208387;23;20005;-69
2024/01/12 08:02:55;;;;;;;116.70;45.50;;;0.90;99.90;;;;;;6207749;23;20349;-68
2024/01/12 08:05:24;;;;;;;113.67;46.93;;;1.00;99.90;;;;;;6206373;23;20001;-67
2024/01/12 08:07:50;;;;;;;107.40;44.90;;;0.90;99.90;;;;;;6208141;23;20306;-68
2024/01/12 08:10:17;;;;;;;114.63;48.72;;;0.90;99.90;;;;;;6207597;23;20004;-70
2024/01/12 08:12:43;;;;;;;135.23;55.67;;;0.90;99.90;;;;;;6208273;23;20009;-67
2024/01/12 08:15:09;;;;;;;140.43;55.58;;;1.00;99.90;;;;;;6207567;23;20675;-68
2024/01/12 08:17:35;;;;;;;149.27;63.72;;;1.00;99.90;;;;;;6207990;23;20012;-67
2024/01/12 08:20:01;;;;;;;117.70;50.65;;;1.00;99.90;;;;;;6207591;23;20000;-67
2024/01/12 08:22:26;;;;;;;122.83;53.43;;;1.00;99.90;;;;;;6207282;23;20012;-69
2024/01/12 08:24:52;;;;;;;137.23;54.72;;;1.00;99.90;;;;;;6207330;23;20452;-66
2024/01/12 08:27:18;;;;;;;124.60;51.70;;;1.00;99.90;;;;;;6207236;23;20009;-69
2024/01/12 08:29:43;;;;;;;121.03;50.88;;;1.00;99.90;;;;;;6207768;23;20448;-70
2024/01/12 08:32:09;;;;;;;116.13;47.90;;;1.00;99.90;;;;;;6205455;23;20008;-68
2024/01/12 08:34:34;;;;;;;117.13;50.73;;;1.00;99.90;;;;;;6207080;23;20410;-67
2024/01/12 08:37:00;;;;;;;116.50;49.90;;;1.10;99.90;;;;;;6207224;23;20274;-67
2024/01/12 08:39:26;;;;;;;117.03;50.50;;;0.90;99.90;;;;;;6206967;23;20005;-65
2024/01/12 08:41:52;;;;;;;111.03;49.15;;;1.00;99.90;;;;;;6206694;23;20017;-66
2024/01/12 08:44:18;;;;;;;118.10;50.05;;;1.00;99.90;;;;;;6206596;23;20410;-66
2024/01/12 08:46:43;;;;;;;113.15;46.95;;;1.00;99.90;;;;;;6208223;23;20567;-65
2024/01/12 08:49:09;;;;;;;113.80;49.43;;;1.10;99.90;;;;;;6207488;23;20016;-67
2024/01/12 08:51:35;;;;;;;118.18;49.58;;;1.10;99.90;;;;;;6207509;23;20009;-67
2024/01/12 08:54:01;;;;;;;110.27;46.37;;;1.10;99.90;;;;;;6207453;23;20005;-67
2024/01/12 08:56:26;;;;;;;110.60;46.47;;;1.00;99.90;;;;;;6207870;23;20239;-65
2024/01/12 08:58:52;;;;;;;112.82;48.35;;;1.00;99.90;;;;;;6208025;23;20399;-66
2024/01/12 09:01:18;;;;;;;122.67;48.90;;;1.10;99.90;;;;;;6208073;23;20009;-68
2024/01/12 09:03:43;;;;;;;115.93;47.20;;;1.10;99.90;;;;;;6207974;23;20246;-72
2024/01/12 09:06:10;;;;;;;113.23;48.63;;;1.00;99.90;;;;;;6207451;23;20039;-66
2024/01/12 09:08:36;;;;;;;119.93;50.85;;;1.10;99.90;;;;;;6207471;23;20070;-65
2024/01/12 09:11:02;;;;;;;121.45;49.88;;;1.10;99.90;;;;;;6206827;23;20440;-65
2024/01/12 09:13:27;;;;;;;123.20;50.50;;;1.10;99.90;;;;;;6231475;23;20031;-66
2024/01/12 09:15:53;;;;;;;111.83;47.67;;;1.20;99.90;;;;;;6207396;23;20448;-65
2024/01/12 09:18:19;;;;;;;108.57;46.47;;;1.20;99.90;;;;;;6207970;23;20055;-68
2024/01/12 09:20:45;;;;;;;115.43;46.95;;;1.20;99.90;;;;;;6207355;23;20009;-69
2024/01/12 09:23:10;;;;;;;112.28;47.40;;;1.20;99.90;;;;;;6207187;23;20448;-70
2024/01/12 09:25:36;;;;;;;99.80;44.77;;;1.30;99.90;;;;;;6206883;23;20005;-73
2024/01/12 09:28:02;;;;;;;121.38;48.55;;;1.20;99.90;;;;;;6207022;23;20062;-71
2024/01/12 09:30:27;;;;;;;109.53;46.55;;;1.20;99.90;;;;;;6206383;23;20039;-71
2024/01/12 09:32:53;;;;;;;128.00;50.53;;;1.20;99.90;;;;;;6206758;23;20005;-71
2024/01/12 09:35:18;;;;;;;126.23;50.50;;;1.20;99.90;;;;;;6206215;23;20309;-76
2024/01/12 09:37:44;;;;;;;124.30;51.97;;;1.20;99.90;;;;;;6207771;23;20005;-75
2024/01/12 09:40:10;;;;;;;114.20;47.03;;;1.20;99.90;;;;;;6206072;23;20008;-70
2024/01/12 09:42:38;;;;;;;;;;;1.20;99.90;;;;;;6206087;23;20081;-70
2024/01/12 09:45:04;;;;;;;103.57;43.15;;;1.20;99.90;;;;;;6205770;23;19904;-75
2024/01/12 09:47:30;;;;;;;96.75;41.97;;;1.20;99.90;;;;;;6206549;23;20008;-74
2024/01/12 09:49:56;;;;;;;106.70;45.00;;;1.20;99.90;;;;;;6205765;23;20004;-70
2024/01/12 09:52:21;;;;;;;100.28;44.40;;;1.20;99.90;;;;;;6205175;23;20028;-75
2024/01/12 09:54:47;;;;;;;109.27;45.97;;;1.20;99.90;;;;;;6204712;23;20008;-65
2024/01/12 09:57:13;;;;;;;106.63;45.95;;;1.20;99.90;;;;;;6208613;23;20715;-73
2024/01/12 09:59:41;;;;;;;115.97;47.40;;;1.30;99.90;;;;;;6207747;23;20004;-75
2024/01/12 10:02:15;;;;;;;111.40;48.08;;;1.30;99.90;;;;;;6207763;23;20472;-75
2024/01/12 10:04:41;;;;;;;106.53;44.45;;;1.40;99.90;;;;;;6208117;23;20004;-76
2024/01/12 10:07:07;;;;;;;108.93;47.80;;;1.30;99.90;;;;;;6208074;23;20352;-77
2024/01/12 10:09:32;;;;;;;103.70;48.03;;;1.40;99.90;;;;;;6208233;23;20004;-79
2024/01/12 10:11:58;;;;;;;108.28;46.50;;;1.40;99.90;;;;;;6208179;23;20005;-75
2024/01/12 10:14:25;;;;;;;94.50;43.95;;;1.30;99.90;;;;;;6206077;23;20445;-67
2024/01/12 10:16:59;;;;;;;102.20;46.00;;;1.30;99.90;;;;;;6207635;23;20072;-70
2024/01/12 10:19:25;;;;;;;105.75;44.75;;;1.30;99.90;;;;;;6202212;23;20012;-72
2024/01/12 10:21:51;;;;;;;108.20;46.28;;;1.40;99.90;;;;;;6207005;23;20107;-75
2024/01/12 10:24:18;;;;;;;106.95;44.30;;;1.40;99.90;;;;;;6206599;23;20019;-69
2024/01/12 10:26:47;;;;;;;102.70;44.38;;;1.40;99.90;;;;;;6207893;23;20028;-67
2024/01/12 10:29:14;;;;;;;110.93;47.63;;;1.40;99.90;;;;;;6205989;23;20016;-78
2024/01/12 10:31:41;;;;;;;;;;;1.40;99.90;;;;;;6207054;23;20011;-69
2024/01/12 10:34:10;;;;;;;110.70;45.37;;;1.50;99.90;;;;;;6206963;23;19904;-72
2024/01/12 10:36:39;;;;;;;107.70;46.80;;;1.50;99.90;;;;;;6230848;23;20798;-70
2024/01/12 10:39:08;;;;;;;109.20;48.47;;;1.50;99.90;;;;;;6207457;23;20008;-68
2024/01/12 10:41:37;;;;;;;106.45;48.42;;;1.60;99.90;;;;;;6207401;23;20066;-68
2024/01/12 10:44:05;;;;;;;104.47;47.65;;;1.70;99.90;;;;;;6207249;23;20015;-73
2024/01/12 10:46:44;;;;;;;102.13;47.67;;;1.60;99.90;;;;;;6207101;23;20020;-66
2024/01/12 10:49:18;;;;;;;108.38;47.22;;;1.70;99.90;;;;;;6206775;23;20703;-68
2024/01/12 10:51:50;;;;;;;103.85;44.72;;;1.70;99.90;;;;;;6206885;23;20031;-71
2024/01/12 10:54:43;;;;;;;91.32;41.50;;;1.70;99.90;;;;;;6204818;23;20011;-67
2024/01/12 10:57:11;;;;;;;103.82;43.20;;;1.70;99.90;;;;;;6206827;23;20087;-65
2024/01/12 10:59:37;;;;;;;96.95;43.67;;;1.70;99.90;;;;;;6205963;23;20397;-67
2024/01/12 11:02:03;;;;;;;108.53;47.72;;;1.70;99.90;;;;;;6206895;23;20014;-65
2024/01/12 11:04:30;;;;;;;113.30;49.50;;;1.70;99.90;;;;;;6205859;23;20039;-66
2024/01/12 11:07:00;;;;;;;112.97;46.65;;;1.80;99.90;;;;;;6207351;23;20005;-70
2024/01/12 11:09:27;;;;;;;99.53;43.40;;;1.80;99.90;;;;;;6208507;23;20083;-68
2024/01/12 11:11:59;;;;;;;110.07;46.97;;;1.80;99.90;;;;;;6206028;23;20127;-68
2024/01/12 11:14:26;;;;;;;99.03;43.65;;;1.90;99.90;;;;;;6207696;23;20116;-69
2024/01/12 11:16:53;;;;;;;94.57;42.00;;;1.90;99.90;;;;;;6207909;23;20009;-71
2024/01/12 11:19:19;;;;;;;97.07;43.78;;;1.90;99.90;;;;;;6207902;23;20036;-67
2024/01/12 11:21:45;;;;;;;94.38;42.30;;;1.90;99.90;;;;;;6208410;23;20032;-68
2024/01/12 11:24:11;;;;;;;101.28;45.30;;;2.00;99.90;;;;;;6207933;23;20386;-67
2024/01/12 11:26:37;;;;;;;101.75;46.33;;;1.90;99.90;;;;;;6207940;23;20020;-69
2024/01/12 11:29:03;;;;;;;103.95;44.00;;;2.00;99.90;;;;;;6207384;23;20031;-67
2024/01/12 11:31:29;;;;;;;107.20;45.78;;;2.00;99.90;;;;;;6206462;23;20017;-67
2024/01/12 11:34:02;;;;;;;103.95;47.13;;;2.10;99.90;;;;;;6207957;23;20001;-72
2024/01/12 11:36:29;;;;;;;115.57;48.42;;;2.10;99.90;;;;;;6207297;23;20101;-75
2024/01/12 11:38:59;;;;;;;111.30;48.85;;;2.10;99.90;;;;;;6206545;23;20016;-68
2024/01/12 11:41:31;;;;;;;106.20;46.90;;;2.20;99.90;;;;;;6207115;23;20000;-71
2024/01/12 11:43:57;;;;;;;110.85;45.00;;;2.20;99.90;;;;;;6207589;23;20009;-69
2024/01/12 11:46:24;;;;;;;102.07;46.05;;;2.10;99.90;;;;;;6207485;23;20005;-68
2024/01/12 11:48:52;;;;;;;;;;;2.00;99.90;;;;;;6208226;23;20631;-69
2024/01/12 11:51:27;;;;;;;116.43;47.45;;;1.90;99.90;;;;;;6191799;22;20298;-72
2024/01/12 11:53:56;;;;;;;106.72;46.45;;;1.90;99.90;;;;;;6203043;22;20048;-68
2024/01/12 11:56:22;;;;;;;113.38;49.25;;;1.90;99.90;;;;;;6205792;23;20012;-67
2024/01/12 11:58:48;;;;;;;;;;;1.90;99.90;;;;;;6208111;23;20648;-66
2024/01/12 12:01:14;;;;;;;121.18;48.83;;;1.80;99.90;;;;;;6207122;23;19910;-68
2024/01/12 12:03:39;;;;;;;111.65;48.05;;;1.90;99.90;;;;;;6206720;23;20406;-70
2024/01/12 12:06:10;;;;;;;118.07;50.65;;;1.90;99.90;;;;;;6206936;23;20495;-70
2024/01/12 12:08:36;;;;;;;119.15;48.45;;;2.00;99.90;;;;;;6207178;23;20276;-70
2024/01/12 12:11:02;;;;;;;105.22;47.70;;;2.00;99.90;;;;;;6206915;23;20011;-70
2024/01/12 12:13:29;;;;;;;;;;;2.00;99.90;;;;;;6208002;23;20511;-73
2024/01/12 12:15:55;;;;;;;97.65;42.20;;;2.10;99.90;;;;;;6207432;23;19957;-68
2024/01/12 12:18:20;;;;;;;104.35;45.97;;;2.00;99.90;;;;;;6205306;23;20091;-69
2024/01/12 12:20:47;;;;;;;97.95;43.67;;;2.10;99.90;;;;;;6207448;23;20348;-71
2024/01/12 12:23:14;;;;;;;101.00;44.70;;;2.10;99.90;;;;;;6208016;23;20017;-70
2024/01/12 12:25:39;;;;;;;93.95;44.17;;;2.10;99.90;;;;;;6257186;22;20031;-71
2024/01/12 12:28:05;;;;;;;99.90;44.07;;;2.10;99.90;;;;;;6206733;23;20425;-72